Time;durP1;ratioP1;P1;durP2;ratioP2;P2;SDS_P1;SDS_P2;PMS_P1;PMS_P2;Temp;Humidity;BMP_temperature;BMP_pressure;BME280_temperature;BME280_humidity;BME280_pressure;Samples;Min_cycle;Max_cycle;Signal;HPM_P1;HPM_P2
2021/07/28 00:01:33;;;;;;;7.50;6.68;;;;;;;21.21;58.98;100211.78;4900370;28;127389;-76
2021/07/28 00:04:01;;;;;;;8.38;7.00;;;;;;;21.24;58.89;100222.06;4902098;28;99346;-67
2021/07/28 00:06:27;;;;;;;7.55;6.82;;;;;;;21.27;58.88;100215.09;4903662;28;114909;-67
2021/07/28 00:08:53;;;;;;;8.52;7.47;;;;;;;21.29;58.98;100210.06;4903622;28;118059;-67
2021/07/28 00:11:20;;;;;;;8.93;6.85;;;;;;;21.29;58.84;100202.63;4902871;28;128315;-66
2021/07/28 00:13:46;;;;;;;9.10;6.95;;;;;;;21.29;59.18;100199.09;4901364;28;126454;-75
2021/07/28 00:16:15;;;;;;;9.20;6.88;;;;;;;21.26;59.14;100203.34;4902407;28;98488;-67
2021/07/28 00:19:02;;;;;;;9.27;7.25;;;;;;;21.29;59.12;100201.84;4903895;28;97944;-67
2021/07/28 00:24:13;;;;;;;6.95;6.28;;;;;;;21.26;59.80;100197.84;4901237;28;98147;-75
2021/07/28 00:26:39;;;;;;;7.47;6.30;;;;;;;21.25;59.90;100195.44;4901911;28;105975;-66
2021/07/28 00:29:05;;;;;;;7.88;6.60;;;;;;;21.24;60.20;100197.38;4903077;28;116865;-75
2021/07/28 00:31:31;;;;;;;9.43;6.95;;;;;;;21.22;60.23;100190.66;4902269;28;126335;-66
2021/07/28 00:33:57;;;;;;;8.00;6.95;;;;;;;21.19;60.44;100185.88;4903415;28;98077;-76
2021/07/28 00:36:23;;;;;;;7.13;6.43;;;;;;;21.14;60.55;100186.09;4902864;28;126744;-66
2021/07/28 00:38:49;;;;;;;7.75;6.40;;;;;;;21.11;60.75;100193.09;4903721;28;115897;-75
2021/07/28 00:41:15;;;;;;;7.72;6.60;;;;;;;21.06;60.71;100196.03;4902654;28;126884;-66
2021/07/28 00:43:41;;;;;;;7.88;6.78;;;;;;;21.04;60.92;100187.38;4900970;28;128056;-66
2021/07/28 00:46:07;;;;;;;7.45;6.45;;;;;;;21.02;61.03;100181.44;4900593;28;118946;-66
2021/07/28 00:48:35;;;;;;;7.57;6.88;;;;;;;20.99;60.89;100187.63;4902931;28;111863;-66
2021/07/28 00:51:01;;;;;;;8.48;6.82;;;;;;;20.94;60.86;100191.38;4903317;28;98675;-75
2021/07/28 00:53:27;;;;;;;7.75;6.32;;;;;;;20.91;61.20;100189.34;4902455;28;127486;-66
2021/07/28 00:55:54;;;;;;;7.05;6.35;;;;;;;20.89;61.20;100179.84;4901159;28;98155;-66
2021/07/28 00:58:21;;;;;;;7.75;6.97;;;;;;;20.84;61.39;100183.63;4903925;28;97820;-74
2021/07/28 01:00:48;;;;;;;10.15;6.75;;;;;;;20.80;61.42;100185.44;4901099;28;99445;-66
2021/07/28 01:03:14;;;;;;;7.80;7.00;;;;;;;20.77;61.58;100195.16;4902847;28;98494;-74
2021/07/28 01:05:40;;;;;;;8.20;7.05;;;;;;;20.74;61.61;100182.13;4902608;28;97912;-74
2021/07/28 01:08:07;;;;;;;7.75;6.85;;;;;;;20.72;61.48;100194.59;4903627;28;97955;-74
2021/07/28 01:10:34;;;;;;;8.30;7.40;;;;;;;20.68;61.39;100191.72;4869799;28;98157;-66
2021/07/28 01:13:03;;;;;;;8.77;7.03;;;;;;;20.66;61.50;100193.19;4869442;28;98458;-74
2021/07/28 01:18:09;;;;;;;8.38;7.65;;;;;;;20.54;61.44;100192.03;4898894;28;97703;-66
2021/07/28 01:20:41;;;;;;;8.50;7.65;;;;;;;20.51;61.27;100197.41;4900832;28;98623;-66
2021/07/28 01:23:29;;;;;;;7.45;6.75;;;;;;;20.48;61.28;100206.28;4903226;28;97892;-74
2021/07/28 01:25:56;;;;;;;8.43;7.45;;;;;;;20.50;61.45;100193.06;4902080;28;98553;-74
2021/07/28 01:28:24;;;;;;;8.40;7.43;;;;;;;20.49;61.88;100205.97;4902600;28;103560;-66
2021/07/28 01:31:07;;;;;;;8.90;7.28;;;;;;;20.47;61.42;100210.13;4900845;28;98292;-74
2021/07/28 01:33:44;;;;;;;8.38;7.22;;;;;;;20.46;61.77;100203.06;4902266;28;98906;-67
2021/07/28 01:36:21;;;;;;;7.80;7.07;;;;;;;20.46;61.61;100197.59;4883923;28;108395;-66
2021/07/28 01:38:48;;;;;;;8.55;7.68;;;;;;;20.48;61.98;100192.59;4884033;28;100590;-66
2021/07/28 01:41:14;;;;;;;8.15;7.32;;;;;;;20.49;61.72;100186.81;4902782;28;99020;-74
2021/07/28 01:43:42;;;;;;;8.32;7.53;;;;;;;20.46;61.70;100184.69;4902036;28;125694;-66
2021/07/28 01:46:08;;;;;;;10.52;7.70;;;;;;;20.41;61.99;100193.16;4899962;28;98497;-74
2021/07/28 01:48:35;;;;;;;8.88;7.97;;;;;;;20.34;61.87;100195.63;4902114;28;99041;-74
2021/07/28 01:51:01;;;;;;;8.05;7.35;;;;;;;20.28;62.12;100191.53;4902235;28;98920;-66
2021/07/28 01:53:27;;;;;;;8.10;7.20;;;;;;;20.22;62.44;100193.69;4900162;28;102670;-74
2021/07/28 01:55:54;;;;;;;8.52;7.72;;;;;;;20.15;62.44;100196.16;4900122;28;117423;-74
2021/07/28 01:58:21;;;;;;;9.65;8.02;;;;;;;20.09;62.29;100190.13;4900631;28;98058;-74
2021/07/28 02:00:47;;;;;;;8.45;7.65;;;;;;;20.05;62.85;100189.19;4899817;28;98452;-66
2021/07/28 02:03:13;;;;;;;8.63;7.78;;;;;;;20.05;62.97;100186.44;4902509;28;103888;-73
2021/07/28 02:05:41;;;;;;;9.18;7.72;;;;;;;20.04;63.02;100190.34;4901567;28;99164;-74
2021/07/28 02:08:10;;;;;;;9.82;7.72;;;;;;;20.03;63.03;100185.97;4900886;28;98558;-75
2021/07/28 02:10:38;;;;;;;8.43;7.55;;;;;;;20.05;63.04;100180.97;4900450;28;98527;-73
2021/07/28 02:13:04;;;;;;;8.35;7.53;;;;;;;20.09;63.27;100181.13;4902015;28;98276;-66
2021/07/28 02:15:32;;;;;;;8.77;7.93;;;;;;;20.14;63.18;100166.41;4901819;28;98200;-73
2021/07/28 02:17:58;;;;;;;8.70;7.80;;;;;;;20.24;63.37;100161.31;4902663;28;97811;-66
2021/07/28 02:20:25;;;;;;;8.68;7.50;;;;;;;20.33;62.89;100158.47;4899435;28;108233;-66
2021/07/28 02:22:51;;;;;;;8.50;7.70;;;;;;;20.42;62.73;100161.09;4901885;28;98299;-73
2021/07/28 02:25:17;;;;;;;10.20;8.27;;;;;;;20.46;62.84;100157.34;4901711;28;98112;-73
2021/07/28 02:27:44;;;;;;;8.30;7.50;;;;;;;20.53;62.64;100171.28;4902977;28;97831;-66
2021/07/28 02:30:11;;;;;;;8.60;7.63;;;;;;;20.58;62.15;100165.56;4900148;28;98697;-72
2021/07/28 02:32:38;;;;;;;8.73;7.57;;;;;;;20.65;62.32;100162.28;4899548;28;112783;-66
2021/07/28 02:35:05;;;;;;;9.90;8.02;;;;;;;20.69;62.22;100160.47;4901855;28;98056;-66
2021/07/28 02:37:32;;;;;;;8.80;7.93;;;;;;;20.74;61.97;100164.91;4901851;28;107224;-66
2021/07/28 02:39:58;;;;;;;9.02;8.10;;;;;;;20.77;61.85;100162.28;4901229;28;98249;-66
2021/07/28 02:42:24;;;;;;;8.25;7.45;;;;;;;20.81;61.93;100160.44;4900663;28;128783;-73
2021/07/28 02:44:50;;;;;;;9.00;8.00;;;;;;;20.87;62.04;100166.50;4900101;28;98180;-66
2021/07/28 02:47:16;;;;;;;9.25;8.05;;;;;;;20.92;62.08;100176.44;4904587;28;98136;-66
2021/07/28 02:49:42;;;;;;;8.32;7.40;;;;;;;20.95;61.70;100183.97;4885255;28;128126;-66
2021/07/28 02:52:08;;;;;;;8.10;7.30;;;;;;;20.97;61.72;100176.19;4886093;28;129099;-72
2021/07/28 02:54:34;;;;;;;8.77;7.25;;;;;;;20.98;61.68;100186.00;4904716;28;100018;-73
2021/07/28 02:57:01;;;;;;;8.73;7.32;;;;;;;20.98;61.97;100186.78;4904771;28;117318;-66
2021/07/28 02:59:27;;;;;;;7.95;7.20;;;;;;;20.98;61.87;100225.16;4885741;28;127925;-72
2021/07/28 03:01:53;;;;;;;8.55;7.70;;;;;;;20.99;62.31;100253.38;4886123;28;125876;-66
2021/07/28 03:04:19;;;;;;;15.98;10.00;;;;;;;21.00;63.41;100279.63;4886259;28;99138;-78
2021/07/28 03:06:46;;;;;;;12.93;9.45;;;;;;;20.96;64.43;100301.41;4887467;28;106117;-68
2021/07/28 03:09:13;;;;;;;9.70;8.43;;;;;;;20.90;64.99;100308.25;4902171;28;107457;-77
2021/07/28 03:11:39;;;;;;;10.43;9.23;;;;;;;20.83;65.15;100294.34;4902765;28;99239;-77
2021/07/28 03:14:06;;;;;;;10.55;9.55;;;;;;;20.77;65.74;100299.22;4904727;28;127462;-68
2021/07/28 03:16:32;;;;;;;11.15;9.50;;;;;;;20.73;65.90;100297.50;4903586;28;117483;-77
2021/07/28 03:19:01;;;;;;;10.55;9.23;;;;;;;20.66;65.58;100305.47;4905215;28;99947;-77
2021/07/28 03:21:27;;;;;;;10.52;9.43;;;;;;;20.64;66.74;100307.75;4905838;28;127468;-76
2021/07/28 03:23:53;;;;;;;11.20;10.10;;;;;;;20.62;66.81;100296.31;4906183;28;98523;-77
2021/07/28 03:26:20;;;;;;;10.60;9.40;;;;;;;20.59;67.03;100298.63;4907789;28;98013;-68
2021/07/28 03:28:46;;;;;;;11.80;9.60;;;;;;;20.57;67.23;100280.91;4905797;28;100108;-77
2021/07/28 03:31:12;;;;;;;12.02;10.32;;;;;;;20.55;67.33;100274.97;4890297;28;98680;-77
2021/07/28 03:33:44;;;;;;;11.50;9.88;;;;;;;20.51;67.43;100269.38;4905915;28;127027;-76
2021/07/28 03:36:10;;;;;;;10.82;9.77;;;;;;;20.53;67.73;100271.78;4903635;28;108669;-68
2021/07/28 03:38:36;;;;;;;11.48;10.07;;;;;;;20.52;68.22;100264.72;4907044;28;128072;-75
2021/07/28 03:41:02;;;;;;;11.50;9.60;;;;;;;20.51;68.21;100243.94;4904046;28;109064;-67
2021/07/28 03:43:28;;;;;;;10.85;9.75;;;;;;;20.51;68.02;100241.19;4904463;28;97886;-67
2021/07/28 03:45:54;;;;;;;10.38;9.35;;;;;;;20.51;68.51;100238.47;4906434;28;98920;-67
2021/07/28 03:48:21;;;;;;;12.27;10.65;;;;;;;20.50;68.05;100247.81;4906614;28;98632;-75
2021/07/28 03:50:47;;;;;;;11.52;9.82;;;;;;;20.47;68.49;100240.25;4903000;28;105781;-67
2021/07/28 03:53:13;;;;;;;11.45;10.25;;;;;;;20.44;68.36;100239.00;4903662;28;97993;-67
2021/07/28 03:55:39;;;;;;;11.63;10.43;;;;;;;20.41;68.33;100227.94;4919729;28;118558;-75
2021/07/28 03:58:05;;;;;;;11.40;10.38;;;;;;;20.38;68.58;100223.94;4904689;28;128153;-75
2021/07/28 04:00:31;;;;;;;12.25;10.00;;;;;;;20.39;68.73;100219.25;4886451;28;128073;-74
2021/07/28 04:02:57;;;;;;;11.40;10.20;;;;;;;20.43;69.26;100220.97;4871314;28;113399;-67
2021/07/28 04:05:23;;;;;;;11.60;10.40;;;;;;;20.46;68.70;100219.50;4892316;28;112521;-67
2021/07/28 04:07:56;;;;;;;11.35;10.23;;;;;;;20.48;68.00;100225.44;4888492;28;97854;-74
2021/07/28 04:10:23;;;;;;;11.48;10.38;;;;;;;20.46;68.20;100230.44;4902593;28;98052;-73
2021/07/28 04:12:49;;;;;;;11.90;10.70;;;;;;;20.41;68.97;100242.41;4887730;28;98151;-67
2021/07/28 04:15:15;;;;;;;11.73;10.52;;;;;;;20.43;68.97;100250.28;4886249;28;104654;-73
2021/07/28 04:17:41;;;;;;;13.65;11.63;;;;;;;20.45;68.86;100248.81;4935076;28;118286;-66
2021/07/28 04:20:07;;;;;;;15.48;13.40;;;;;;;20.44;68.92;100249.97;4903299;28;126811;-67
2021/07/28 04:22:33;;;;;;;13.48;12.07;;;;;;;20.42;69.48;100245.94;4902993;28;115643;-66
2021/07/28 04:25:02;;;;;;;12.55;11.25;;;;;;;20.41;69.12;100226.00;4889548;28;116870;-73
2021/07/28 04:27:30;;;;;;;12.93;11.45;;;;;;;20.45;69.33;100213.22;4902960;28;98549;-75
2021/07/28 04:29:57;;;;;;;13.98;12.57;;;;;;;20.48;69.70;100209.03;4935436;28;98087;-73
2021/07/28 04:32:23;;;;;;;12.63;11.40;;;;;;;20.53;69.05;100206.09;4886986;28;126111;-74
2021/07/28 04:34:50;;;;;;;13.07;11.15;;;;;;;20.61;69.22;100188.75;4904887;28;98245;-66
2021/07/28 04:37:16;;;;;;;15.13;12.77;;;;;;;20.66;69.11;100187.72;4886573;28;118175;-66
2021/07/28 04:39:43;;;;;;;14.70;13.02;;;;;;;20.62;69.22;100179.38;4903654;28;111841;-67
2021/07/28 04:42:09;;;;;;;13.40;12.00;;;;;;;20.56;69.30;100173.34;4902316;28;97969;-66
2021/07/28 04:44:40;;;;;;;13.20;11.15;;;;;;;20.54;69.06;100172.09;4906650;28;98037;-73
2021/07/28 04:47:06;;;;;;;15.77;12.50;;;;;;;20.54;69.26;100183.03;4903336;28;128500;-74
2021/07/28 04:49:32;;;;;;;13.50;12.20;;;;;;;20.43;69.40;100188.13;4887601;28;98093;-73
2021/07/28 04:51:58;;;;;;;14.68;13.07;;;;;;;20.38;69.69;100199.28;4904076;28;98491;-72
2021/07/28 04:54:25;;;;;;;13.18;11.77;;;;;;;20.39;69.69;100180.94;4906291;28;105403;-66
2021/07/28 04:56:51;;;;;;;13.82;12.43;;;;;;;20.50;69.47;100177.44;4903527;28;98509;-66
2021/07/28 04:59:17;;;;;;;13.80;12.40;;;;;;;20.64;69.26;100174.38;4900927;28;127862;-66
2021/07/28 05:01:43;;;;;;;14.75;13.27;;;;;;;20.73;68.98;100172.31;4904835;28;98628;-66
2021/07/28 05:04:09;;;;;;;14.38;12.85;;;;;;;20.71;69.19;100168.31;4903350;28;98826;-74
2021/07/28 05:06:38;;;;;;;15.20;13.52;;;;;;;20.61;69.44;100168.78;4905793;28;98123;-74
2021/07/28 05:09:04;;;;;;;14.57;13.00;;;;;;;20.50;69.75;100171.16;4902360;28;100024;-73
2021/07/28 05:11:30;;;;;;;13.32;12.07;;;;;;;20.45;70.02;100172.16;4899169;28;127953;-66
2021/07/28 05:13:56;;;;;;;14.68;13.05;;;;;;;20.38;70.48;100166.44;4901160;28;118507;-73
2021/07/28 05:16:22;;;;;;;14.25;12.85;;;;;;;20.33;70.66;100172.94;4904867;28;128339;-67
2021/07/28 05:18:48;;;;;;;16.23;14.63;;;;;;;20.28;70.57;100170.44;4900220;28;126968;-66
2021/07/28 05:21:14;;;;;;;14.75;13.25;;;;;;;20.28;71.03;100177.84;4903154;28;123106;-66
2021/07/28 05:23:40;;;;;;;14.48;13.00;;;;;;;20.31;70.84;100182.63;4903195;28;117945;-66
2021/07/28 05:26:06;;;;;;;14.63;13.23;;;;;;;20.34;70.77;100185.50;4902380;28;99468;-66
2021/07/28 05:28:32;;;;;;;14.77;12.93;;;;;;;20.41;70.68;100192.34;4902440;28;127160;-66
2021/07/28 05:30:58;;;;;;;14.05;12.65;;;;;;;20.46;70.96;100190.19;4900028;28;126326;-66
2021/07/28 05:33:25;;;;;;;13.25;11.95;;;;;;;20.58;70.48;100175.75;4936695;28;117303;-72
2021/07/28 05:35:51;;;;;;;15.57;13.98;;;;;;;20.75;70.51;100181.00;4919124;28;98145;-67
2021/07/28 05:38:18;;;;;;;14.00;12.60;;;;;;;20.90;70.44;100184.19;4935649;28;98388;-67
2021/07/28 05:40:44;;;;;;;14.20;12.70;;;;;;;21.02;69.74;100184.97;4883910;28;98313;-67
2021/07/28 05:43:10;;;;;;;14.45;12.95;;;;;;;21.12;69.58;100188.41;4902471;28;116254;-74
2021/07/28 05:45:36;;;;;;;13.65;12.23;;;;;;;21.15;69.42;100172.06;4901315;28;98116;-74
2021/07/28 05:48:02;;;;;;;13.65;12.27;;;;;;;21.15;69.49;100176.75;4902161;28;98907;-66
2021/07/28 05:50:28;;;;;;;13.63;12.32;;;;;;;21.13;69.52;100182.56;4900567;28;113998;-66
2021/07/28 05:52:54;;;;;;;13.43;12.02;;;;;;;21.11;69.68;100182.13;4902298;28;117274;-73
2021/07/28 05:55:21;;;;;;;13.93;12.05;;;;;;;21.15;69.97;100185.78;4905135;28;99356;-73
2021/07/28 05:57:48;;;;;;;14.38;12.43;;;;;;;21.22;69.73;100187.91;4901865;28;98329;-73
2021/07/28 06:00:15;;;;;;;16.70;11.18;;;;;;;21.27;70.11;100183.00;4900335;28;98279;-66
2021/07/28 06:02:41;;;;;;;16.20;11.80;;;;;;;21.33;69.97;100197.28;4901083;28;102773;-73
2021/07/28 06:05:08;;;;;;;12.65;11.45;;;;;;;21.43;69.74;100196.03;4887232;28;128374;-73
2021/07/28 06:07:34;;;;;;;12.43;11.02;;;;;;;21.56;69.82;100192.09;4901436;28;97998;-74
2021/07/28 06:10:00;;;;;;;12.73;11.27;;;;;;;21.72;69.50;100203.13;4900800;28;128055;-73
2021/07/28 06:12:26;;;;;;;12.13;10.88;;;;;;;21.98;68.18;100210.91;4899430;28;117145;-74
2021/07/28 06:14:52;;;;;;;11.50;10.30;;;;;;;22.01;68.68;100210.22;4902398;28;100138;-68
2021/07/28 06:17:19;;;;;;;12.38;10.88;;;;;;;22.16;68.56;100208.66;4899818;28;127548;-74
2021/07/28 06:19:45;;;;;;;12.27;11.07;;;;;;;22.34;68.39;100209.16;4900921;28;99574;-74
2021/07/28 06:22:11;;;;;;;11.25;10.13;;;;;;;22.46;67.77;100209.84;4903199;28;116496;-75
2021/07/28 06:24:37;;;;;;;10.90;9.88;;;;;;;22.64;67.10;100212.28;4906373;28;98633;-67
2021/07/28 06:27:04;;;;;;;11.85;10.13;;;;;;;22.66;67.12;100209.94;4906078;28;98997;-74
2021/07/28 06:29:30;;;;;;;11.00;9.90;;;;;;;23.27;65.35;100215.75;4904552;28;100165;-74
2021/07/28 06:31:56;;;;;;;9.93;8.93;;;;;;;25.14;60.95;100214.53;4904208;28;97986;-74
2021/07/28 06:34:22;;;;;;;9.25;8.35;;;;;;;26.64;57.64;100217.09;4887586;28;128518;-66
2021/07/28 06:36:48;;;;;;;9.15;8.25;;;;;;;26.26;58.61;100223.06;4904525;28;126722;-67
2021/07/28 06:39:14;;;;;;;10.52;9.13;;;;;;;25.78;59.78;100212.69;4907265;28;97959;-74
2021/07/28 06:41:40;;;;;;;10.57;9.50;;;;;;;25.52;60.09;100216.25;4904610;28;117115;-74
2021/07/28 06:44:06;;;;;;;11.10;10.00;;;;;;;25.32;60.16;100228.59;4905601;28;120777;-66
2021/07/28 06:46:33;;;;;;;10.90;9.80;;;;;;;25.16;60.33;100224.03;4887519;28;124758;-74
2021/07/28 06:48:59;;;;;;;11.57;9.85;;;;;;;25.05;60.27;100225.00;4890972;28;99423;-74
2021/07/28 06:51:28;;;;;;;11.30;9.75;;;;;;;25.73;58.54;100217.69;4905226;28;98026;-74
2021/07/28 06:53:54;;;;;;;10.68;9.55;;;;;;;27.30;55.36;100231.03;4918493;28;99707;-74
2021/07/28 06:56:20;;;;;;;10.23;9.20;;;;;;;27.41;55.32;100244.94;4904640;28;115315;-73
2021/07/28 06:58:47;;;;;;;9.48;8.68;;;;;;;27.23;55.52;100246.78;4904566;28;127397;-72
2021/07/28 07:01:13;;;;;;;10.02;9.02;;;;;;;27.24;55.20;100246.44;4887158;28;98031;-67
2021/07/28 07:03:39;;;;;;;11.68;9.85;;;;;;;27.21;55.48;100240.88;4887795;28;111839;-74
2021/07/28 07:06:06;;;;;;;11.45;9.63;;;;;;;26.83;56.31;100245.69;4903944;28;98842;-74
2021/07/28 07:08:32;;;;;;;10.98;9.95;;;;;;;26.45;56.44;100250.50;4905969;28;98785;-67
2021/07/28 07:10:58;;;;;;;11.50;9.48;;;;;;;26.12;57.65;100254.06;4886492;28;98490;-67
2021/07/28 07:13:25;;;;;;;10.00;8.85;;;;;;;25.83;57.45;100228.09;4905521;28;99981;-74
2021/07/28 07:15:51;;;;;;;12.07;9.43;;;;;;;25.57;59.12;100229.72;4883940;28;98211;-74
2021/07/28 07:18:17;;;;;;;11.95;9.55;;;;;;;25.36;58.62;100241.25;4916543;28;98012;-66
2021/07/28 07:20:43;;;;;;;11.10;9.45;;;;;;;25.11;59.27;100260.22;4899998;28;98120;-66
2021/07/28 07:23:11;;;;;;;11.30;9.52;;;;;;;24.84;60.58;100261.31;4927602;28;125275;-74
2021/07/28 07:25:38;;;;;;;10.05;9.13;;;;;;;24.62;60.78;100269.19;4903337;28;98520;-74
2021/07/28 07:28:04;;;;;;;10.88;9.70;;;;;;;24.38;61.11;100286.06;4904833;28;98240;-66
2021/07/28 07:30:31;;;;;;;11.45;9.70;;;;;;;24.20;61.49;100292.00;4903746;28;98005;-74
2021/07/28 07:35:41;;;;;;;10.93;9.82;;;;;;;23.98;62.27;100285.28;4902116;28;98337;-66
2021/07/28 07:38:08;;;;;;;11.32;10.10;;;;;;;23.93;62.47;100265.50;4903714;28;127403;-73
2021/07/28 07:40:34;;;;;;;13.45;10.18;;;;;;;23.90;62.25;100269.00;4902352;28;118220;-74
2021/07/28 07:43:00;;;;;;;11.77;10.23;;;;;;;23.84;62.14;100273.16;4903087;28;98075;-73
2021/07/28 07:45:26;;;;;;;11.20;10.10;;;;;;;23.71;62.55;100292.56;4904547;28;98218;-74
2021/07/28 07:47:52;;;;;;;14.63;11.05;;;;;;;23.60;63.05;100286.00;4905322;28;98127;-74
2021/07/28 07:50:18;;;;;;;13.60;11.13;;;;;;;23.55;63.56;100269.78;4885756;28;112852;-74
2021/07/28 07:52:44;;;;;;;13.80;10.63;;;;;;;23.53;63.96;100261.09;4903489;28;116015;-66
2021/07/28 07:55:11;;;;;;;11.95;10.65;;;;;;;23.55;64.04;100258.78;4902569;28;100742;-74
2021/07/28 07:57:37;;;;;;;12.02;10.82;;;;;;;23.61;63.45;100262.03;4904059;28;98172;-74
2021/07/28 08:00:04;;;;;;;11.82;10.25;;;;;;;23.64;64.16;100256.63;4903084;28;117588;-75
2021/07/28 08:02:32;;;;;;;12.00;10.77;;;;;;;23.66;63.52;100264.56;4903785;28;98258;-66
2021/07/28 08:04:58;;;;;;;13.45;11.38;;;;;;;23.73;63.89;100259.97;4904212;28;98891;-74
2021/07/28 08:07:24;;;;;;;13.13;11.15;;;;;;;23.86;63.69;100271.66;4903729;28;126595;-75
2021/07/28 08:09:50;;;;;;;13.55;12.15;;;;;;;23.98;62.59;100281.72;4904266;28;116753;-75
2021/07/28 08:12:16;;;;;;;12.98;11.68;;;;;;;23.94;62.52;100284.41;4903943;28;127795;-67
2021/07/28 08:14:42;;;;;;;12.73;11.43;;;;;;;23.88;63.22;100291.34;4901215;28;127849;-67
2021/07/28 08:17:08;;;;;;;12.77;10.95;;;;;;;23.89;63.02;100283.88;4901070;28;127027;-75
2021/07/28 08:19:34;;;;;;;12.52;11.32;;;;;;;23.92;62.91;100274.91;4904250;28;97918;-66
2021/07/28 08:22:00;;;;;;;14.35;12.13;;;;;;;24.14;62.84;100281.66;4901011;28;128662;-75
2021/07/28 08:24:26;;;;;;;12.90;11.50;;;;;;;24.38;62.30;100278.63;4900652;28;126935;-74
2021/07/28 08:26:52;;;;;;;11.88;10.75;;;;;;;24.40;62.21;100257.00;4903057;28;126462;-67
2021/07/28 08:29:18;;;;;;;12.18;10.95;;;;;;;24.42;62.30;100262.94;4902946;28;117698;-75
2021/07/28 08:31:44;;;;;;;13.20;11.73;;;;;;;24.54;61.36;100264.72;4884598;28;127420;-75
2021/07/28 08:34:10;;;;;;;12.60;11.38;;;;;;;25.06;60.64;100267.94;4883766;28;127699;-67
2021/07/28 08:36:36;;;;;;;11.85;10.32;;;;;;;26.04;58.59;100274.47;4901744;28;127673;-75
2021/07/28 08:39:02;;;;;;;11.57;10.48;;;;;;;25.70;58.38;100280.75;4902499;28;117588;-74
2021/07/28 08:41:28;;;;;;;10.60;9.50;;;;;;;25.46;58.74;100286.69;4901548;28;98209;-67
2021/07/28 08:43:57;;;;;;;11.20;10.05;;;;;;;25.35;58.17;100278.28;4883263;28;128346;-75
2021/07/28 08:46:26;;;;;;;9.77;8.77;;;;;;;25.34;58.42;100282.19;4903769;28;109581;-74
2021/07/28 08:48:52;;;;;;;10.10;9.20;;;;;;;25.33;58.62;100279.81;4903850;28;97854;-67
2021/07/28 08:51:18;;;;;;;9.73;8.68;;;;;;;25.56;57.75;100275.03;4902367;28;113518;-66
2021/07/28 08:53:44;;;;;;;9.43;8.50;;;;;;;26.84;54.66;100281.25;4901487;28;128144;-67
2021/07/28 08:56:11;;;;;;;11.73;9.73;;;;;;;26.63;54.97;100281.84;4903490;28;98187;-70
2021/07/28 08:58:38;;;;;;;9.88;8.68;;;;;;;26.70;55.35;100281.13;4884918;28;117729;-74
2021/07/28 09:01:04;;;;;;;8.90;8.00;;;;;;;26.94;54.77;100285.28;4902260;28;98881;-66
2021/07/28 09:03:30;;;;;;;9.27;8.35;;;;;;;27.17;53.88;100291.41;4901678;28;98292;-66
2021/07/28 09:05:59;;;;;;;10.10;9.20;;;;;;;27.70;52.38;100292.13;4901105;28;102897;-66
2021/07/28 09:08:30;;;;;;;9.43;8.57;;;;;;;29.19;49.00;100286.19;4903534;28;97835;-66
2021/07/28 09:10:58;;;;;;;9.35;8.43;;;;;;;29.26;49.60;100291.72;4885400;28;98536;-73
2021/07/28 09:13:42;;;;;;;8.75;7.90;;;;;;;28.95;50.09;100289.75;4902509;28;98528;-74
2021/07/28 09:16:14;;;;;;;9.07;8.10;;;;;;;28.41;51.15;100291.66;4902219;28;98406;-74
2021/07/28 09:18:43;;;;;;;10.25;8.90;;;;;;;27.95;51.26;100289.53;4903532;28;97912;-74
2021/07/28 09:21:25;;;;;;;9.77;8.68;;;;;;;27.89;51.81;100289.09;4903026;28;99402;-66
2021/07/28 09:23:56;;;;;;;9.68;8.52;;;;;;;27.91;51.71;100300.59;4902788;28;99276;-73
2021/07/28 09:26:51;;;;;;;12.30;8.65;;;;;;;28.00;51.46;100292.69;4902884;28;98285;-66
2021/07/28 09:29:25;;;;;;;8.43;7.63;;;;;;;30.53;46.60;100294.44;4903476;28;97763;-73
2021/07/28 09:32:08;;;;;;;8.52;7.72;;;;;;;31.03;45.31;100299.66;4903304;28;98520;-73
2021/07/28 09:34:38;;;;;;;8.25;7.45;;;;;;;31.78;44.65;100298.13;4902637;28;97821;-67
2021/07/28 09:37:13;;;;;;;8.00;7.25;;;;;;;32.32;43.12;100295.47;4902958;28;97806;-67
2021/07/28 09:39:43;;;;;;;7.82;7.05;;;;;;;32.50;42.54;100295.22;4903033;28;97887;-74
2021/07/28 09:42:16;;;;;;;6.43;5.93;;;;;;;33.17;40.89;100309.31;4902233;28;98978;-74
2021/07/28 09:44:44;;;;;;;6.53;5.88;;;;;;;34.46;38.88;100301.97;4902428;28;98190;-73
2021/07/28 09:47:20;;;;;;;7.03;6.20;;;;;;;35.25;37.91;100305.69;4902440;28;97898;-74
2021/07/28 09:49:50;;;;;;;6.72;5.90;;;;;;;37.35;34.53;100306.94;4902421;28;106141;-74
2021/07/28 09:52:20;;;;;;;6.35;5.75;;;;;;;38.79;31.42;100306.72;4900849;28;99050;-74
2021/07/28 09:54:47;;;;;;;7.35;6.75;;;;;;;39.90;29.38;100306.78;4902126;28;98971;-66
2021/07/28 09:57:19;;;;;;;6.80;6.10;;;;;;;38.07;31.63;100300.28;4900206;28;97868;-74
2021/07/28 09:59:49;;;;;;;5.45;4.95;;;;;;;39.85;29.27;100293.28;4903105;28;97932;-66
2021/07/28 10:02:15;;;;;;;5.47;4.20;;;;;;;39.75;29.68;100287.69;4899523;28;119788;-66
2021/07/28 10:04:48;;;;;;;4.45;4.05;;;;;;;39.21;29.58;100285.66;4900030;28;128218;-66
2021/07/28 10:07:17;;;;;;;4.63;3.88;;;;;;;38.46;30.35;100283.13;4899842;28;98035;-66
2021/07/28 10:09:49;;;;;;;3.95;3.55;;;;;;;39.86;28.14;100283.59;4903036;28;97824;-65
2021/07/28 10:12:15;;;;;;;3.90;3.50;;;;;;;40.11;28.30;100288.88;4901257;28;118791;-74
2021/07/28 10:14:42;;;;;;;3.22;2.92;;;;;;;38.70;29.07;100277.72;4883532;28;126946;-74
2021/07/28 10:17:10;;;;;;;2.83;2.63;;;;;;;38.26;29.35;100275.06;4901781;28;98137;-66
2021/07/28 10:19:36;;;;;;;3.20;2.90;;;;;;;40.27;26.25;100270.78;4881271;28;101415;-66
2021/07/28 10:22:02;;;;;;;3.17;2.88;;;;;;;41.05;25.67;100268.16;4864291;28;118155;-66
2021/07/28 10:24:29;;;;;;;2.97;2.75;;;;;;;41.39;24.67;100269.59;4849921;28;127713;-66
2021/07/28 10:26:55;;;;;;;3.03;2.72;;;;;;;41.24;25.08;100266.75;4901881;28;116038;-75
2021/07/28 10:29:21;;;;;;;3.55;3.22;;;;;;;41.07;25.57;100260.78;4900674;28;98373;-66
2021/07/28 10:31:51;;;;;;;3.50;3.20;;;;;;;40.50;25.76;100252.31;4899851;28;126861;-75
2021/07/28 10:34:32;;;;;;;3.38;3.17;;;;;;;41.50;25.45;100266.22;4901524;28;99294;-74
2021/07/28 10:37:05;;;;;;;5.50;3.10;;;;;;;40.68;25.91;100245.81;4902425;28;97764;-66
2021/07/28 10:40:03;;;;;;;3.58;3.25;;;;;;;39.41;26.81;100240.09;4902008;28;97978;-75
2021/07/28 10:42:29;;;;;;;3.35;2.95;;;;;;;40.91;25.11;100239.38;4891352;28;98542;-66
2021/07/28 10:45:12;;;;;;;3.35;3.05;;;;;;;40.68;25.16;100240.94;4901629;28;98506;-66
2021/07/28 10:47:45;;;;;;;3.17;2.88;;;;;;;39.17;26.86;100225.84;4901537;28;98659;-66
2021/07/28 10:50:26;;;;;;;3.47;3.17;;;;;;;38.33;28.35;100231.81;4900743;28;98343;-66
2021/07/28 10:52:52;;;;;;;;;;;;;;;38.55;28.22;100227.69;4902772;28;98562;-66
2021/07/28 10:55:23;;;;;;;3.40;3.10;;;;;;;36.87;29.37;100230.34;4901060;28;97786;-66
2021/07/28 10:58:08;;;;;;;4.30;3.47;;;;;;;36.96;28.90;100233.25;4902241;28;97900;-75
2021/07/28 11:00:37;;;;;;;3.75;3.33;;;;;;;36.94;28.85;100223.72;4899564;28;97826;-66
2021/07/28 11:03:10;;;;;;;3.50;3.20;;;;;;;37.24;28.54;100227.88;4902084;28;98015;-74
2021/07/28 11:05:40;;;;;;;3.65;3.35;;;;;;;38.59;26.98;100226.72;4901257;28;98755;-66
2021/07/28 11:08:06;;;;;;;4.43;3.37;;;;;;;39.34;25.97;100238.41;4901301;28;119337;-75
2021/07/28 11:10:41;;;;;;;3.50;3.13;;;;;;;39.43;26.63;100232.75;4905133;28;97960;-75
2021/07/28 11:13:18;;;;;;;3.65;3.30;;;;;;;40.04;25.81;100237.63;4905266;28;98382;-66
2021/07/28 11:16:05;;;;;;;3.40;3.10;;;;;;;40.76;25.36;100229.25;4904035;28;114709;-75
2021/07/28 11:18:57;;;;;;;4.10;3.08;;;;;;;40.38;25.60;100230.75;4906223;28;98013;-66
2021/07/28 11:21:29;;;;;;;4.13;3.33;;;;;;;40.67;24.58;100236.53;4903333;28;97990;-66
2021/07/28 11:24:06;;;;;;;4.20;2.97;;;;;;;41.07;24.02;100232.53;4902465;28;98462;-66
2021/07/28 11:26:37;;;;;;;4.35;2.63;;;;;;;41.15;23.64;100235.72;4904443;28;99237;-76